Altamont, UT

9:42 AM MDT on June 22, 2017 (GMT -0600)
West Rabbit Gultch, Duchesne County, UT | | Change Station

Elev 6457 ft 40.21 °N, 110.62 °W | Updated 10 seconds ago

Clear
Clear
81.6 °F
Feels Like 80 °F
N
2.0
Wind Variable Wind from NW
Gusts 6.0 mph

Today
High -- | Low -- °F
--% Chance of Precip.
Yesterday
High -- | Low -- °F
Precip. -- in
Pressure 29.75 in
Visibility 10.0 miles
Clouds Clear
Heat Index 80 °F
Dew Point 39 °F
Humidity 22%
Rainfall 0.00 in
Snow Depth Not available.
5:51 AM 8:54 PM
Waning Crescent, 3% visible
METAR KVEL 221453Z AUTO 17004KT 10SM CLR 26/07 A2997 RMK AO2 SLP073 60000 T02610067 53004
Pressure 29.75 in
Visibility 10.0 miles
Clouds Clear
Heat Index 80 °F
Dew Point 39 °F
Humidity 22%
Rainfall 0.00 in
Snow Depth Not available.
5:51 AM 8:54 PM
Waning Crescent, 3% visible
METAR KVEL 221453Z AUTO 17004KT 10SM CLR 26/07 A2997 RMK AO2 SLP073 60000 T02610067 53004

Get Severe Weather Alerts

Thanks for signing up!

Be on the lookout for a verification email in your inbox.

You'll start receiving the daily forecast at 6 AM.

×

10-Day Weather Forecast

Almanac

Astronomy

Jun. 22, 2017 Rise Set
Actual Time
Civil Twilight
Nautical Twilight
Astronomical Twilight
Moon
Length of Visible Light
Length of Day
Tomorrow will be .
, % of the Moon is Illuminated

Today's Extremes

State Highs State Lows

Community

WunderPhotos

Category 6

Welcome to Category 6. This is the collective home for Weather Underground's featured writeups by Dr. Jeff Masters (right), Bob Henson (left), Chris Burt, and other regular contributors.

Nearby

Air Quality

  Air Quality AQ Index Pollutant
Not available.

Snow Depth

Station Depth Elevation

Earthquake Activity

City Distance Mag. Time & Date
Minimum magnitude displayed is 2.5.

Coastal Water Temperatures

Place Temperature

Stations

Nearby Weather Stations

Station Location Temp. Windchill Dew Point Humidity Wind Precip. Elev Updated Type
                   

Watches & Warnings

There are currently no watches in effect.